createdAt,value
2023-03-17T06:03:14.632Z,500.00
2023-03-17T06:04:15.680Z,500.00
2023-03-17T06:05:15.647Z,500.00
2023-03-17T06:08:15.733Z,500.00
2023-03-17T06:09:15.726Z,400.00
2023-03-17T06:10:15.747Z,400.00
2023-03-17T06:11:15.772Z,400.00
2023-03-17T06:12:15.854Z,400.00
2023-03-17T06:13:15.903Z,400.00
2023-03-17T06:14:15.944Z,400.00
2023-03-17T06:15:15.972Z,400.00
2023-03-17T06:16:16.055Z,400.00
2023-03-17T06:17:16.022Z,400.00
2023-03-17T06:18:16.043Z,400.00
2023-03-17T06:19:16.068Z,400.00
2023-03-17T06:20:16.057Z,400.00
2023-03-17T06:22:16.113Z,400.00
2023-03-17T06:23:16.102Z,400.00
2023-03-17T06:24:16.124Z,400.00
2023-03-17T06:25:16.136Z,400.00
2023-03-17T06:27:16.141Z,435.00
2023-03-17T06:29:16.150Z,500.00
2023-03-17T06:30:16.159Z,503.00
2023-03-17T06:31:16.234Z,504.00
2023-03-17T06:32:20.724Z,503.00
2023-03-17T06:33:16.142Z,503.00
2023-03-17T06:34:16.135Z,494.00
2023-03-17T06:36:16.156Z,480.00
2023-03-17T06:39:16.152Z,502.00
2023-03-17T06:41:16.095Z,508.00
2023-03-17T06:43:16.083Z,504.00
2023-03-17T06:44:16.096Z,506.00
2023-03-17T06:46:16.139Z,503.00
2023-03-17T06:48:16.075Z,505.00
2023-03-17T06:50:16.022Z,506.00
2023-03-17T06:51:16.045Z,501.00
2023-03-17T06:52:16.024Z,506.00
2023-03-17T06:53:16.014Z,504.00
2023-03-17T06:54:16.010Z,501.00
2023-03-17T06:55:16.070Z,511.00
2023-03-17T06:56:29.104Z,506.00
2023-03-17T06:57:15.991Z,506.00
2023-03-17T06:58:16.037Z,507.00
2023-03-17T06:59:16.009Z,508.00
2023-03-17T07:01:15.998Z,497.00
2023-03-17T07:02:15.955Z,500.00
2023-03-17T07:03:15.948Z,500.00
2023-03-17T07:05:15.950Z,503.00
2023-03-17T07:06:15.932Z,507.00
2023-03-17T07:07:15.969Z,508.00
2023-03-17T07:08:15.912Z,509.00
2023-03-17T07:09:15.902Z,507.00
2023-03-17T07:10:16.014Z,516.00
2023-03-17T07:11:15.915Z,525.00
2023-03-17T07:12:15.917Z,537.00
2023-03-17T07:13:15.910Z,574.00
2023-03-17T07:14:15.872Z,831.00
2023-03-17T07:15:15.885Z,691.00
2023-03-17T07:16:15.904Z,641.00
2023-03-17T07:17:15.844Z,839.00
2023-03-17T07:18:15.834Z,1103.00
2023-03-17T07:19:15.868Z,1006.00
2023-03-17T07:20:15.837Z,1046.00
2023-03-17T07:23:15.842Z,1188.00
2023-03-17T07:24:15.807Z,1284.00
2023-03-17T07:26:15.821Z,1419.00
2023-03-17T07:27:17.110Z,1496.00
2023-03-17T07:28:15.777Z,1517.00
2023-03-17T07:30:15.800Z,1499.00
2023-03-17T07:31:15.824Z,1513.00
2023-03-17T07:32:15.762Z,1490.00
2023-03-17T07:33:15.826Z,1532.00
2023-03-17T07:34:15.731Z,1567.00
2023-03-17T07:35:16.768Z,1570.00
2023-03-17T07:36:15.841Z,1538.00
2023-03-17T07:37:15.725Z,1580.00
2023-03-17T07:38:15.744Z,1565.00
2023-03-17T07:39:15.751Z,1565.00
2023-03-17T07:40:15.766Z,1593.00
2023-03-17T07:41:15.737Z,1555.00
2023-03-17T07:42:15.788Z,1589.00
2023-03-17T07:43:15.759Z,1592.00
2023-03-17T07:45:15.803Z,1603.00
2023-03-17T07:46:15.850Z,1611.00
2023-03-17T07:47:15.769Z,1623.00
2023-03-17T07:48:15.787Z,1631.00
2023-03-17T07:51:15.832Z,1627.00
2023-03-17T07:52:15.860Z,1585.00
2023-03-17T07:53:15.880Z,1601.00
2023-03-17T07:55:15.927Z,1593.00
2023-03-17T07:56:16.264Z,1601.00
2023-03-17T07:57:16.012Z,1592.00
2023-03-17T07:59:16.062Z,1517.00
2023-03-17T08:02:16.132Z,1456.00
2023-03-17T08:04:16.123Z,1449.00
2023-03-17T08:06:16.128Z,1445.00
2023-03-17T08:09:16.117Z,1443.00
2023-03-17T08:12:16.119Z,1430.00
2023-03-17T08:13:16.114Z,1461.00
2023-03-17T08:15:16.152Z,1441.00
2023-03-17T08:16:16.235Z,1434.00
2023-03-17T08:17:16.221Z,1432.00
2023-03-17T08:18:16.244Z,1415.00
2023-03-17T08:19:16.324Z,1437.00
2023-03-17T08:21:16.410Z,1432.00
2023-03-17T08:24:16.643Z,1453.00
2023-03-17T08:25:16.663Z,1446.00
2023-03-17T08:26:16.724Z,1447.00
2023-03-17T08:27:16.788Z,1441.00
2023-03-17T08:29:15.789Z,1439.00
2023-03-17T08:31:16.869Z,1445.00
2023-03-17T08:32:16.116Z,1438.00
2023-03-17T08:34:15.826Z,1429.00
2023-03-17T08:35:16.835Z,1437.00
2023-03-17T08:36:16.825Z,1426.00
2023-03-17T08:37:16.807Z,1424.00
2023-03-17T08:38:16.859Z,1423.00
2023-03-17T08:39:16.909Z,1435.00
2023-03-17T08:41:17.051Z,1425.00
2023-03-17T08:44:16.033Z,1427.00
2023-03-17T08:50:48.292Z,500.00
2023-03-17T09:13:46.965Z,510.00
2023-03-17T11:36:57.408Z,506.00
2023-03-17T11:37:55.391Z,510.00
2023-03-17T11:39:55.390Z,504.00
2023-03-17T11:40:55.384Z,507.00
2023-03-17T11:42:56.033Z,501.00
2023-03-17T11:43:55.364Z,509.00
2023-03-17T11:44:55.367Z,507.00
2023-03-17T11:46:55.859Z,511.00
2023-03-17T12:45:55.450Z,504.00
2023-03-17T12:46:55.435Z,509.00
2023-03-17T12:47:55.469Z,507.00
2023-03-17T12:48:55.483Z,508.00
2023-03-17T12:49:55.508Z,509.00
2023-03-17T12:50:55.529Z,507.00
2023-03-17T12:51:55.574Z,513.00
2023-03-17T12:52:55.615Z,510.00
2023-03-17T12:53:55.640Z,509.00
2023-03-17T12:54:55.690Z,506.00
2023-03-17T12:55:55.706Z,506.00
2023-03-17T12:56:55.774Z,510.00
2023-03-17T12:57:55.822Z,507.00
2023-03-17T12:58:55.802Z,506.00
2023-03-17T12:59:55.856Z,506.00
2023-03-17T13:00:55.896Z,504.00
2023-03-17T13:01:55.968Z,506.00
2023-03-17T13:02:55.984Z,506.00
2023-03-17T13:03:55.987Z,507.00
2023-03-17T13:04:56.002Z,504.00
2023-03-17T13:05:56.069Z,512.00
2023-03-17T13:06:56.081Z,512.00
2023-03-17T13:10:56.219Z,511.00
2023-03-17T13:11:56.290Z,503.00
2023-03-17T13:12:56.313Z,504.00
2023-03-17T13:13:56.350Z,503.00
2023-03-17T13:14:56.360Z,507.00
2023-03-17T13:15:56.401Z,507.00
2023-03-17T13:16:56.480Z,502.00
2023-03-17T13:17:56.483Z,504.00
2023-03-17T13:18:56.496Z,507.00
2023-03-17T13:19:56.534Z,510.00
2023-03-17T13:20:56.612Z,510.00
2023-03-17T13:21:56.642Z,508.00
2023-03-17T13:22:56.665Z,511.00
2023-03-17T13:23:56.706Z,509.00
2023-03-17T13:24:56.745Z,508.00
2023-03-17T13:25:55.773Z,507.00
2023-03-17T13:26:56.809Z,507.00
2023-03-17T13:27:56.873Z,508.00
2023-03-17T13:28:56.934Z,509.00
2023-03-17T13:29:56.934Z,509.00
2023-03-17T13:30:55.991Z,509.00
2023-03-17T13:31:57.003Z,511.00
2023-03-17T13:32:57.159Z,506.00
2023-03-17T13:33:57.094Z,513.00
2023-03-17T13:34:57.158Z,509.00
2023-03-17T13:35:57.248Z,507.00
2023-03-17T13:36:57.229Z,507.00
2023-03-17T13:37:57.257Z,507.00
2023-03-17T13:39:17.643Z,507.00
2023-03-17T13:39:57.306Z,507.00
2023-03-17T13:40:56.278Z,508.00
2023-03-17T13:42:00.929Z,507.00
2023-03-17T13:42:57.289Z,507.00
2023-03-17T13:43:57.269Z,508.00
2023-03-17T13:44:57.297Z,508.00
2023-03-17T13:45:57.242Z,500.00
2023-03-17T13:46:57.258Z,505.00
2023-03-17T13:47:56.241Z,503.00
2023-03-17T13:48:56.246Z,505.00
2023-03-17T13:49:56.220Z,500.00
2023-03-17T13:50:57.216Z,505.00
2023-03-17T13:52:00.190Z,505.00
2023-03-17T13:52:57.223Z,505.00
2023-03-17T13:53:57.201Z,505.00
2023-03-17T13:54:57.205Z,505.00
2023-03-17T13:55:57.199Z,507.00
2023-03-17T13:56:57.191Z,502.00
2023-03-17T13:57:57.195Z,503.00
2023-03-17T13:58:56.180Z,511.00
2023-03-17T13:59:57.162Z,504.00
2023-03-17T14:00:57.204Z,508.00
2023-03-17T14:01:57.152Z,508.00
2023-03-17T14:02:56.133Z,506.00
2023-03-17T14:03:56.153Z,510.00
2023-03-17T14:04:57.131Z,506.00
2023-03-17T14:05:57.124Z,506.00
2023-03-17T14:06:57.135Z,503.00
2023-03-17T14:07:57.110Z,506.00
2023-03-17T14:08:57.101Z,505.00
2023-03-17T14:09:56.083Z,505.00
2023-03-17T14:10:57.083Z,510.00
2023-03-17T14:11:57.082Z,507.00
2023-03-17T14:12:56.092Z,508.00
2023-03-17T14:13:57.069Z,510.00
2023-03-17T14:14:57.066Z,506.00
2023-03-17T14:15:56.094Z,510.00
2023-03-17T14:16:56.133Z,507.00
2023-03-17T14:17:56.200Z,509.00
2023-03-17T14:18:57.241Z,508.00
2023-03-17T14:19:57.257Z,505.00
2023-03-17T14:20:57.313Z,508.00
2023-03-17T14:21:56.363Z,511.00
2023-03-17T14:22:57.419Z,507.00
2023-03-17T14:23:56.473Z,503.00
2023-03-17T14:24:56.528Z,508.00
2023-03-17T14:25:56.555Z,504.00
2023-03-17T14:26:57.615Z,503.00
2023-03-17T14:27:56.685Z,509.00
2023-03-17T14:28:57.719Z,506.00
2023-03-17T14:29:56.741Z,504.00
2023-03-17T14:30:57.848Z,507.00
2023-03-17T14:31:57.917Z,508.00
2023-03-17T14:32:57.992Z,501.00
2023-03-17T14:33:56.966Z,503.00
2023-03-17T14:34:58.006Z,507.00
2023-03-17T14:35:58.150Z,507.00
2023-03-17T14:36:58.114Z,501.00
2023-03-17T14:37:58.149Z,506.00
2023-03-17T14:38:57.183Z,503.00
2023-03-17T14:39:58.242Z,505.00
2023-03-17T14:40:58.275Z,503.00
2023-03-17T14:41:58.329Z,507.00
2023-03-17T14:42:58.420Z,507.00
2023-03-17T14:43:58.459Z,508.00
2023-03-17T14:44:58.472Z,508.00
2023-03-17T14:45:58.574Z,505.00
2023-03-17T14:46:58.570Z,505.00
2023-03-17T14:47:58.623Z,508.00
2023-03-17T14:48:57.684Z,504.00
2023-03-17T14:49:57.715Z,504.00
2023-03-17T14:50:58.782Z,506.00
2023-03-17T14:51:58.820Z,510.00
2023-03-17T14:52:58.872Z,503.00
2023-03-17T14:53:57.913Z,507.00
2023-03-17T14:54:58.965Z,502.00
2023-03-17T14:55:59.025Z,508.00
2023-03-17T14:56:59.078Z,501.00
2023-03-17T14:57:58.125Z,504.00
2023-03-17T14:58:59.150Z,505.00
2023-03-17T14:59:59.227Z,500.00
2023-03-17T15:00:59.304Z,504.00
2023-03-17T15:01:59.342Z,504.00
2023-03-17T15:02:59.371Z,505.00
2023-03-17T15:03:59.400Z,504.00
2023-03-17T15:04:58.483Z,507.00
2023-03-17T15:05:58.508Z,500.00
2023-03-17T15:06:59.578Z,506.00
2023-03-17T15:07:59.613Z,511.00
2023-03-17T15:08:59.657Z,507.00
2023-03-17T15:09:59.687Z,505.00
2023-03-17T15:10:59.743Z,511.00
2023-03-17T15:11:59.796Z,509.00
2023-03-17T15:12:59.867Z,504.00
2023-03-17T15:13:58.903Z,505.00
2023-03-17T15:14:59.934Z,508.00
2023-03-17T15:15:59.983Z,507.00
2023-03-17T15:17:00.065Z,502.00
2023-03-17T15:18:00.127Z,507.00
2023-03-17T15:18:59.167Z,504.00
2023-03-17T15:20:00.202Z,504.00
2023-03-17T15:21:00.270Z,508.00
2023-03-17T15:22:00.409Z,502.00
2023-03-17T15:23:00.372Z,503.00
2023-03-17T15:23:59.381Z,507.00
2023-03-17T15:25:00.452Z,506.00
2023-03-17T15:26:00.479Z,505.00
2023-03-17T15:27:00.524Z,502.00
2023-03-17T15:28:00.604Z,509.00
2023-03-17T15:28:59.645Z,510.00
2023-03-17T15:30:00.701Z,509.00
2023-03-17T15:31:00.761Z,504.00
2023-03-17T15:32:00.793Z,503.00
2023-03-17T15:33:00.955Z,506.00
2023-03-17T15:34:00.872Z,510.00
2023-03-17T15:34:59.922Z,505.00
2023-03-17T15:36:01.032Z,506.00
2023-03-17T15:37:01.064Z,505.00
2023-03-17T15:38:00.096Z,503.00
2023-03-17T15:39:01.175Z,505.00
2023-03-17T15:40:01.191Z,505.00
2023-03-17T15:41:00.224Z,510.00
2023-03-17T15:42:01.285Z,508.00
2023-03-17T15:43:00.348Z,501.00
2023-03-17T15:44:03.414Z,501.00
2023-03-17T15:45:01.400Z,509.00
2023-03-17T15:46:01.424Z,505.00
2023-03-17T15:47:01.360Z,510.00
2023-03-17T15:48:00.357Z,504.00
2023-03-17T15:49:01.368Z,509.00
2023-03-17T15:50:01.350Z,510.00
2023-03-17T15:51:01.366Z,496.00
2023-03-17T15:52:01.311Z,508.00
2023-03-17T15:53:01.407Z,500.00
2023-03-17T15:54:01.309Z,468.00
2023-03-17T15:55:01.306Z,496.00
2023-03-17T15:56:01.301Z,494.00
2023-03-17T15:57:01.288Z,525.00
2023-03-17T15:58:01.271Z,525.00
2023-03-17T15:59:01.268Z,512.00
2023-03-17T16:00:00.272Z,517.00
2023-03-17T16:01:01.413Z,557.00
2023-03-17T16:02:01.302Z,561.00
2023-03-17T16:03:01.237Z,592.00
2023-03-17T16:05:01.235Z,595.00
2023-03-17T16:06:01.217Z,602.00
2023-03-17T16:07:01.246Z,618.00
2023-03-17T16:08:01.202Z,636.00
2023-03-17T16:17:01.287Z,661.00
2023-03-17T16:23:01.564Z,664.00
